Time;durP1;ratioP1;P1;durP2;ratioP2;P2;SDS_P1;SDS_P2;PMS_P1;PMS_P2;Temp;Humidity;BMP_temperature;BMP_pressure;BME280_temperature;BME280_humidity;BME280_pressure;Samples;Min_cycle;Max_cycle;Signal;HPM_P1;HPM_P2
2023/12/12 00:01:23;;;;;;;0.10;0.10;;;7.90;99.90;;;;;;5038628;28;20519;-69
2023/12/12 00:03:49;;;;;;;0.10;0.10;;;7.90;99.90;;;;;;5046045;28;20049;-69
2023/12/12 00:06:15;;;;;;;0.10;0.10;;;7.90;99.90;;;;;;5038461;28;20124;-69
2023/12/12 00:08:41;;;;;;;0.10;0.10;;;7.90;99.90;;;;;;5044753;28;20485;-69
2023/12/12 00:11:06;;;;;;;0.00;0.00;;;7.80;99.90;;;;;;5042699;28;20102;-69
2023/12/12 00:13:32;;;;;;;0.10;0.10;;;7.80;99.90;;;;;;5042711;28;20112;-69
2023/12/12 00:15:58;;;;;;;0.32;0.32;;;7.70;99.90;;;;;;5046115;28;20039;-69
2023/12/12 00:18:23;;;;;;;0.20;0.20;;;7.70;99.90;;;;;;5042503;28;20467;-69
2023/12/12 00:20:50;;;;;;;0.10;0.10;;;7.60;99.90;;;;;;5043395;28;20076;-69
2023/12/12 00:23:15;;;;;;;0.10;0.10;;;7.60;99.90;;;;;;5041969;28;20036;-69
2023/12/12 00:25:41;;;;;;;0.10;0.10;;;7.60;99.90;;;;;;5043986;28;20106;-69
2023/12/12 00:28:07;;;;;;;0.00;0.00;;;7.60;99.90;;;;;;5040091;28;20049;-69
2023/12/12 00:30:33;;;;;;;0.10;0.10;;;7.60;99.90;;;;;;5039906;28;20135;-69
2023/12/12 00:32:58;;;;;;;0.10;0.10;;;7.60;99.90;;;;;;5046251;28;20041;-69
2023/12/12 00:35:24;;;;;;;0.10;0.10;;;7.60;99.90;;;;;;5043483;28;20095;-69
2023/12/12 00:37:49;;;;;;;0.10;0.10;;;7.50;99.90;;;;;;5037719;28;20094;-68
2023/12/12 00:40:15;;;;;;;0.00;0.00;;;7.50;99.90;;;;;;5037355;28;20068;-69
2023/12/12 00:42:41;;;;;;;0.10;0.10;;;7.50;99.90;;;;;;5043724;28;20041;-69
2023/12/12 00:45:07;;;;;;;0.17;0.17;;;7.50;99.90;;;;;;5034596;28;20081;-69
2023/12/12 00:47:32;;;;;;;0.10;0.10;;;7.60;99.90;;;;;;5041186;28;20041;-69
2023/12/12 00:49:58;;;;;;;0.00;0.00;;;7.50;99.90;;;;;;5039122;28;20729;-69
2023/12/12 00:52:24;;;;;;;0.10;0.10;;;7.50;99.90;;;;;;5038033;28;20061;-69
2023/12/12 00:54:50;;;;;;;0.10;0.10;;;7.40;99.90;;;;;;5057364;28;20492;-69
2023/12/12 00:57:15;;;;;;;0.00;0.00;;;7.40;99.90;;;;;;5047096;28;20048;-69
2023/12/12 00:59:41;;;;;;;0.10;0.10;;;7.40;99.90;;;;;;5039361;28;20520;-69
2023/12/12 01:02:06;;;;;;;0.00;0.00;;;7.40;99.90;;;;;;5034662;28;20037;-68
2023/12/12 01:04:36;;;;;;;0.10;0.10;;;7.40;99.90;;;;;;5037755;28;20057;-69
2023/12/12 01:07:01;;;;;;;3.20;2.20;;;7.30;99.90;;;;;;5044956;28;20102;-69
2023/12/12 01:09:28;;;;;;;0.00;0.00;;;7.30;99.90;;;;;;5038245;28;20124;-69
2023/12/12 01:11:53;;;;;;;0.10;0.10;;;7.30;99.90;;;;;;5043670;28;20057;-69
2023/12/12 01:14:19;;;;;;;0.10;0.10;;;7.30;99.90;;;;;;5043549;28;20513;-69
2023/12/12 01:16:45;;;;;;;2.08;1.83;;;7.30;99.90;;;;;;5036481;28;20111;-69
2023/12/12 01:19:11;;;;;;;0.35;0.35;;;7.20;99.90;;;;;;5041252;28;20049;-69
2023/12/12 01:21:36;;;;;;;0.10;0.10;;;7.20;99.90;;;;;;5046450;28;20578;-69
2023/12/12 01:24:02;;;;;;;0.10;0.10;;;7.20;99.90;;;;;;5038472;28;20069;-69
2023/12/12 01:26:27;;;;;;;0.10;0.10;;;7.10;99.90;;;;;;5036127;28;20045;-69
2023/12/12 01:28:54;;;;;;;0.10;0.10;;;7.10;99.90;;;;;;5060939;28;20056;-69
2023/12/12 01:31:20;;;;;;;0.10;0.10;;;7.00;99.90;;;;;;5044275;28;20060;-68
2023/12/12 01:33:47;;;;;;;0.10;0.10;;;7.00;99.90;;;;;;5035135;28;20132;-69
2023/12/12 01:36:12;;;;;;;0.10;0.10;;;6.90;99.90;;;;;;5044027;28;20557;-69
2023/12/12 01:38:38;;;;;;;0.00;0.00;;;6.90;99.90;;;;;;5041234;28;20128;-69
2023/12/12 01:41:04;;;;;;;2.13;1.65;;;6.70;99.90;;;;;;5046625;28;20752;-69
2023/12/12 01:43:31;;;;;;;2.35;2.22;;;6.80;99.90;;;;;;5046592;28;20037;-69
2023/12/12 01:45:59;;;;;;;6.82;2.08;;;6.70;99.90;;;;;;5058510;28;20415;-69
2023/12/12 01:48:26;;;;;;;0.50;0.50;;;6.70;99.90;;;;;;5039666;28;20127;-69
2023/12/12 01:50:51;;;;;;;0.10;0.10;;;6.70;99.90;;;;;;5043276;28;20068;-69
2023/12/12 01:53:19;;;;;;;0.00;0.00;;;6.60;99.90;;;;;;5043751;28;20052;-69
2023/12/12 01:55:48;;;;;;;0.10;0.10;;;6.50;99.90;;;;;;5040154;28;20045;-69
2023/12/12 01:58:13;;;;;;;0.10;0.10;;;6.50;99.90;;;;;;5059647;28;20480;-69
2023/12/12 02:00:39;;;;;;;0.10;0.10;;;6.40;99.90;;;;;;5048220;28;20055;-69
2023/12/12 02:03:05;;;;;;;0.10;0.10;;;6.40;99.90;;;;;;5040752;28;20056;-69
2023/12/12 02:05:31;;;;;;;0.63;0.63;;;6.30;99.90;;;;;;5042551;28;20053;-69
2023/12/12 02:07:58;;;;;;;0.00;0.00;;;6.20;99.90;;;;;;5046321;28;20123;-69
2023/12/12 02:10:24;;;;;;;0.10;0.10;;;6.30;99.90;;;;;;5042072;28;20128;-69
2023/12/12 02:12:49;;;;;;;0.10;0.10;;;6.30;99.90;;;;;;5038510;28;20124;-69
2023/12/12 02:15:15;;;;;;;0.10;0.10;;;6.20;99.90;;;;;;5043180;28;20040;-69
2023/12/12 02:17:41;;;;;;;0.10;0.10;;;6.20;99.90;;;;;;5046068;28;20595;-69
2023/12/12 02:20:07;;;;;;;0.00;0.00;;;6.10;99.90;;;;;;5036866;28;20060;-69
2023/12/12 02:22:33;;;;;;;0.10;0.10;;;6.10;99.90;;;;;;5058840;28;20039;-69
2023/12/12 02:24:58;;;;;;;4.65;1.58;;;6.00;99.90;;;;;;5058333;28;20044;-69
2023/12/12 02:27:25;;;;;;;0.10;0.10;;;5.90;99.90;;;;;;5045220;28;20052;-69
2023/12/12 02:29:50;;;;;;;0.10;0.10;;;5.90;99.90;;;;;;5037677;28;20048;-69
2023/12/12 02:32:16;;;;;;;0.10;0.10;;;5.90;99.90;;;;;;5047945;28;20075;-68
2023/12/12 02:34:42;;;;;;;0.10;0.10;;;5.90;99.90;;;;;;5043797;28;20053;-69
2023/12/12 02:37:08;;;;;;;0.10;0.10;;;5.90;99.90;;;;;;5039922;28;20128;-69
2023/12/12 02:39:34;;;;;;;0.10;0.10;;;5.90;99.90;;;;;;5041541;28;20136;-69
2023/12/12 02:41:59;;;;;;;0.10;0.10;;;5.80;99.90;;;;;;5041721;28;20048;-69
2023/12/12 02:44:25;;;;;;;0.30;0.30;;;5.80;99.90;;;;;;5038959;28;20091;-69
2023/12/12 02:46:50;;;;;;;0.20;0.20;;;5.70;99.90;;;;;;5040383;28;20090;-69
2023/12/12 02:49:16;;;;;;;0.10;0.10;;;5.70;99.90;;;;;;5043034;28;20142;-69
2023/12/12 02:51:41;;;;;;;0.10;0.10;;;5.60;99.90;;;;;;5046733;28;20053;-69
2023/12/12 02:54:07;;;;;;;0.10;0.10;;;5.60;99.90;;;;;;5039884;28;20737;-69
2023/12/12 02:56:33;;;;;;;0.10;0.10;;;5.60;99.90;;;;;;5042360;28;20099;-69
2023/12/12 02:58:59;;;;;;;0.80;0.77;;;5.50;99.90;;;;;;5037008;28;20041;-68
2023/12/12 03:01:24;;;;;;;0.10;0.10;;;5.60;99.90;;;;;;5037184;28;20816;-69
2023/12/12 03:03:50;;;;;;;0.45;0.45;;;5.50;99.90;;;;;;5046472;28;20084;-68
2023/12/12 03:06:16;;;;;;;0.00;0.00;;;5.40;99.90;;;;;;5042120;28;20053;-69
2023/12/12 03:08:42;;;;;;;0.10;0.10;;;5.50;99.90;;;;;;5043566;28;20052;-69
2023/12/12 03:11:07;;;;;;;0.10;0.10;;;5.50;99.90;;;;;;5042477;28;20041;-69
2023/12/12 03:13:33;;;;;;;0.10;0.10;;;5.30;99.90;;;;;;5036486;28;20040;-69
2023/12/12 03:15:59;;;;;;;0.10;0.10;;;5.30;99.90;;;;;;5063022;28;20507;-69
2023/12/12 03:18:24;;;;;;;0.00;0.00;;;5.30;99.90;;;;;;5046906;28;20041;-69
2023/12/12 03:20:50;;;;;;;0.25;0.25;;;5.30;99.90;;;;;;5041691;28;20485;-69
2023/12/12 03:23:15;;;;;;;0.10;0.10;;;5.30;99.90;;;;;;5038211;28;20040;-69
2023/12/12 03:25:41;;;;;;;0.10;0.10;;;5.30;99.90;;;;;;5040684;28;20041;-69
2023/12/12 03:28:06;;;;;;;0.10;0.10;;;5.30;99.90;;;;;;5042176;28;20044;-69
2023/12/12 03:30:32;;;;;;;0.10;0.10;;;5.30;99.90;;;;;;5047385;28;20400;-69
2023/12/12 03:32:58;;;;;;;0.20;0.20;;;5.30;99.90;;;;;;5046017;28;20388;-69
2023/12/12 03:35:23;;;;;;;0.10;0.10;;;5.30;99.90;;;;;;5042278;28;20063;-69
2023/12/12 03:37:49;;;;;;;0.10;0.10;;;5.40;99.90;;;;;;5048251;28;20120;-69
2023/12/12 03:40:15;;;;;;;0.00;0.00;;;5.30;99.90;;;;;;5043401;28;20037;-69
2023/12/12 03:42:40;;;;;;;0.40;0.40;;;5.30;99.90;;;;;;5038224;28;20061;-69
2023/12/12 03:45:06;;;;;;;0.10;0.10;;;5.30;99.90;;;;;;5035803;28;20183;-69
2023/12/12 03:47:32;;;;;;;0.10;0.10;;;5.40;99.90;;;;;;5042320;28;20129;-69
2023/12/12 03:49:58;;;;;;;0.30;0.30;;;5.50;99.90;;;;;;5052656;28;20138;-69
2023/12/12 03:52:23;;;;;;;0.10;0.10;;;5.40;99.90;;;;;;5044544;28;20044;-69
2023/12/12 03:54:49;;;;;;;0.10;0.10;;;5.40;99.90;;;;;;5041951;28;20037;-69
2023/12/12 03:57:14;;;;;;;0.10;0.10;;;5.30;99.90;;;;;;5040300;28;20046;-69
2023/12/12 03:59:40;;;;;;;0.10;0.10;;;5.30;99.90;;;;;;5045084;28;20047;-68
2023/12/12 04:02:05;;;;;;;0.10;0.10;;;5.20;99.90;;;;;;5044709;28;20037;-69
2023/12/12 04:04:31;;;;;;;0.40;0.40;;;5.20;99.90;;;;;;5058219;28;20186;-69
2023/12/12 04:06:57;;;;;;;0.10;0.10;;;5.20;99.90;;;;;;5045830;28;20056;-69
2023/12/12 04:09:22;;;;;;;0.10;0.10;;;5.20;99.90;;;;;;5046574;28;20894;-69
2023/12/12 04:11:48;;;;;;;0.17;0.17;;;5.20;99.90;;;;;;5047584;28;20047;-69
2023/12/12 04:14:13;;;;;;;14.60;1.20;;;5.20;99.90;;;;;;5035568;28;21562;-69
2023/12/12 04:16:39;;;;;;;0.10;0.10;;;5.20;99.90;;;;;;5036756;28;20494;-69
2023/12/12 04:19:05;;;;;;;0.10;0.10;;;5.20;99.90;;;;;;5038407;28;20129;-69
2023/12/12 04:21:31;;;;;;;0.20;0.20;;;5.20;99.90;;;;;;5043276;28;20119;-69
2023/12/12 04:23:56;;;;;;;0.10;0.10;;;5.10;99.90;;;;;;5037638;28;20048;-68
2023/12/12 04:26:22;;;;;;;0.10;0.10;;;5.20;99.90;;;;;;5041084;28;20048;-68
2023/12/12 04:28:47;;;;;;;0.10;0.10;;;5.30;99.90;;;;;;5041966;28;20044;-69
2023/12/12 04:31:15;;;;;;;0.10;0.10;;;5.50;99.90;;;;;;5036439;28;20037;-69
2023/12/12 04:33:41;;;;;;;0.10;0.10;;;5.50;99.90;;;;;;5043801;28;20041;-69
2023/12/12 04:36:07;;;;;;;0.10;0.10;;;5.50;99.90;;;;;;5045372;28;20049;-69
2023/12/12 04:38:35;;;;;;;0.40;0.40;;;5.50;99.90;;;;;;5040990;28;20033;-69
2023/12/12 04:41:03;;;;;;;0.10;0.10;;;5.50;99.90;;;;;;5038397;28;20404;-69
2023/12/12 04:43:29;;;;;;;0.40;0.40;;;5.60;99.90;;;;;;5043339;28;20040;-69
2023/12/12 04:45:56;;;;;;;1.83;0.63;;;5.60;99.90;;;;;;5040987;28;20097;-68
2023/12/12 04:48:22;;;;;;;0.30;0.30;;;5.60;99.90;;;;;;5035585;28;20471;-69
2023/12/12 04:50:47;;;;;;;0.10;0.10;;;5.50;99.90;;;;;;5041130;28;20503;-69
2023/12/12 04:53:13;;;;;;;0.10;0.10;;;5.50;99.90;;;;;;5039182;28;20045;-69
2023/12/12 04:55:39;;;;;;;0.65;0.65;;;5.60;99.90;;;;;;5062497;28;20051;-69
2023/12/12 04:58:04;;;;;;;0.10;0.10;;;5.50;99.90;;;;;;5035773;28;20080;-69
2023/12/12 05:00:30;;;;;;;0.10;0.10;;;5.50;99.90;;;;;;5042255;28;20049;-69
2023/12/12 05:02:56;;;;;;;0.22;0.22;;;5.50;99.90;;;;;;5040120;28;20057;-69
2023/12/12 05:05:21;;;;;;;2.20;1.08;;;5.50;99.90;;;;;;5046615;28;20053;-69
2023/12/12 05:07:47;;;;;;;0.10;0.10;;;5.40;99.90;;;;;;5043142;28;20041;-69
2023/12/12 05:10:12;;;;;;;0.10;0.10;;;5.40;99.90;;;;;;5042324;28;20041;-69
2023/12/12 05:12:38;;;;;;;0.10;0.10;;;5.30;99.90;;;;;;5063317;28;20048;-69
2023/12/12 05:15:05;;;;;;;0.65;0.65;;;5.30;99.90;;;;;;5048686;28;20799;-69
2023/12/12 05:17:31;;;;;;;0.10;0.10;;;5.20;99.90;;;;;;5037445;28;20759;-69
2023/12/12 05:19:58;;;;;;;0.10;0.10;;;5.20;99.90;;;;;;5045832;28;20049;-69
2023/12/12 05:22:23;;;;;;;0.10;0.10;;;5.20;99.90;;;;;;5039204;28;20136;-69
2023/12/12 05:24:49;;;;;;;0.10;0.10;;;5.20;99.90;;;;;;5048873;28;20138;-69
2023/12/12 05:27:15;;;;;;;0.10;0.10;;;5.20;99.90;;;;;;5044260;28;20049;-68
2023/12/12 05:29:40;;;;;;;0.25;0.25;;;5.20;99.90;;;;;;5046623;28;20103;-69
2023/12/12 05:32:06;;;;;;;0.32;0.32;;;5.10;99.90;;;;;;5049651;28;20723;-68
2023/12/12 05:34:32;;;;;;;0.10;0.10;;;5.20;99.90;;;;;;5041118;28;20455;-69
2023/12/12 05:36:57;;;;;;;0.10;0.10;;;5.20;99.90;;;;;;5044601;28;20048;-69
2023/12/12 05:39:23;;;;;;;0.10;0.10;;;5.20;99.90;;;;;;5042063;28;20037;-69
2023/12/12 05:41:48;;;;;;;0.15;0.15;;;5.20;99.90;;;;;;5044103;28;20053;-69
2023/12/12 05:44:14;;;;;;;0.10;0.10;;;5.20;99.90;;;;;;5042741;28;20084;-69
2023/12/12 05:46:40;;;;;;;0.10;0.10;;;5.30;99.90;;;;;;5060877;28;20067;-69
2023/12/12 05:49:09;;;;;;;0.10;0.10;;;5.30;99.90;;;;;;5049610;28;20049;-69
2023/12/12 05:51:37;;;;;;;0.17;0.17;;;5.30;99.90;;;;;;5036595;28;20640;-69
2023/12/12 05:54:03;;;;;;;0.10;0.10;;;5.40;99.90;;;;;;5045916;28;20041;-69
2023/12/12 05:56:29;;;;;;;0.10;0.10;;;5.40;99.90;;;;;;5042472;28;20041;-69
2023/12/12 05:58:54;;;;;;;0.10;0.10;;;5.40;99.90;;;;;;5040103;28;20489;-69
2023/12/12 06:01:21;;;;;;;0.10;0.10;;;5.40;99.90;;;;;;5046613;28;20140;-69
2023/12/12 06:03:46;;;;;;;0.70;0.70;;;5.50;99.90;;;;;;5047029;28;20061;-69
2023/12/12 06:06:12;;;;;;;0.10;0.10;;;5.50;99.90;;;;;;5044691;28;20040;-69
2023/12/12 06:08:38;;;;;;;0.10;0.10;;;5.50;99.90;;;;;;5063568;28;20076;-69
2023/12/12 06:11:04;;;;;;;0.10;0.10;;;5.50;99.90;;;;;;5034997;28;20065;-69
2023/12/12 06:13:29;;;;;;;0.38;0.38;;;5.50;99.90;;;;;;5040762;28;20488;-69
2023/12/12 06:15:56;;;;;;;0.10;0.10;;;5.50;99.90;;;;;;5043654;28;20234;-69
2023/12/12 06:18:23;;;;;;;0.10;0.10;;;5.50;99.90;;;;;;5039285;28;20091;-69
2023/12/12 06:20:48;;;;;;;0.25;0.25;;;5.60;99.90;;;;;;5033520;28;20485;-69
2023/12/12 06:23:14;;;;;;;0.38;0.38;;;5.60;99.90;;;;;;5038289;28;20045;-69
2023/12/12 06:25:39;;;;;;;0.10;0.10;;;5.60;99.90;;;;;;5047702;28;20032;-69
2023/12/12 06:28:05;;;;;;;0.10;0.10;;;5.60;99.90;;;;;;5049814;28;20135;-69
2023/12/12 06:30:30;;;;;;;0.20;0.20;;;5.60;99.90;;;;;;5046375;28;20408;-69
2023/12/12 06:32:56;;;;;;;0.10;0.10;;;5.60;99.90;;;;;;5035227;28;20045;-69
2023/12/12 06:35:25;;;;;;;0.10;0.10;;;5.60;99.90;;;;;;5046088;28;20045;-69
2023/12/12 06:37:51;;;;;;;0.10;0.10;;;5.60;99.90;;;;;;5049864;28;20072;-69
2023/12/12 06:40:16;;;;;;;0.10;0.10;;;5.60;99.90;;;;;;5045296;28;20095;-69
2023/12/12 06:42:44;;;;;;;0.57;0.57;;;5.60;99.90;;;;;;5045960;28;20048;-69
2023/12/12 06:45:10;;;;;;;0.10;0.10;;;5.70;99.90;;;;;;5046217;28;20029;-69
2023/12/12 06:47:36;;;;;;;0.13;0.13;;;5.70;99.90;;;;;;5032757;28;20610;-69
2023/12/12 06:50:05;;;;;;;0.10;0.10;;;5.70;99.90;;;;;;5043702;28;20492;-69
2023/12/12 06:52:34;;;;;;;0.15;0.15;;;5.70;99.90;;;;;;5047702;28;20049;-69
2023/12/12 06:55:00;;;;;;;0.65;0.65;;;5.80;99.90;;;;;;5039278;28;20037;-69
2023/12/12 06:57:25;;;;;;;1.65;1.55;;;5.80;99.90;;;;;;5044569;28;20048;-70
2023/12/12 06:59:52;;;;;;;0.98;0.98;;;5.80;99.90;;;;;;5041605;28;20072;-68
2023/12/12 07:02:18;;;;;;;0.10;0.10;;;5.80;99.90;;;;;;5048166;28;20686;-69
2023/12/12 07:04:43;;;;;;;0.15;0.15;;;5.90;99.90;;;;;;5039791;28;20045;-69
2023/12/12 07:07:09;;;;;;;1.40;1.13;;;5.90;99.90;;;;;;5036187;28;20041;-69
2023/12/12 07:09:35;;;;;;;0.38;0.38;;;5.90;99.90;;;;;;5040299;28;20044;-68
2023/12/12 07:12:01;;;;;;;0.47;0.47;;;5.90;99.90;;;;;;5046601;28;20048;-68
2023/12/12 07:14:27;;;;;;;0.20;0.20;;;5.90;99.90;;;;;;5044893;28;20044;-69
2023/12/12 07:16:53;;;;;;;0.10;0.10;;;6.00;99.90;;;;;;5035681;28;20063;-68
2023/12/12 07:19:19;;;;;;;0.10;0.10;;;6.00;99.90;;;;;;5041457;28;20052;-68
2023/12/12 07:21:44;;;;;;;0.10;0.10;;;6.10;99.90;;;;;;5037814;28;20504;-69
2023/12/12 07:24:10;;;;;;;0.20;0.20;;;6.10;99.90;;;;;;5045236;28;20428;-69
2023/12/12 07:26:36;;;;;;;1.35;1.25;;;6.10;99.90;;;;;;5047918;28;20136;-69
2023/12/12 07:29:02;;;;;;;0.38;0.38;;;6.10;99.90;;;;;;5044696;28;20033;-69
2023/12/12 07:31:27;;;;;;;0.10;0.10;;;6.10;99.90;;;;;;5043134;28;20041;-69
2023/12/12 07:33:53;;;;;;;0.10;0.10;;;6.10;99.90;;;;;;5045387;28;20045;-69
2023/12/12 07:36:19;;;;;;;0.57;0.57;;;6.10;99.90;;;;;;5034256;28;20124;-69
2023/12/12 07:38:44;;;;;;;0.10;0.10;;;6.10;99.90;;;;;;5042419;28;20385;-69
2023/12/12 07:41:10;;;;;;;0.20;0.20;;;6.20;99.90;;;;;;5044149;28;20476;-69
2023/12/12 07:43:36;;;;;;;0.10;0.10;;;6.20;99.90;;;;;;5046152;28;20091;-70
2023/12/12 07:46:02;;;;;;;0.10;0.10;;;6.20;99.90;;;;;;5043366;28;20477;-69
2023/12/12 07:48:27;;;;;;;0.10;0.10;;;6.20;99.90;;;;;;5036032;28;20663;-69
2023/12/12 07:50:54;;;;;;;0.10;0.10;;;6.20;99.90;;;;;;5038897;28;20044;-69
2023/12/12 07:53:19;;;;;;;0.77;0.77;;;6.20;99.90;;;;;;5044285;28;20120;-69
2023/12/12 07:55:45;;;;;;;0.68;0.68;;;6.30;99.90;;;;;;5038718;28;20115;-69
2023/12/12 07:58:10;;;;;;;0.55;0.55;;;6.30;99.90;;;;;;5042489;28;20052;-69
2023/12/12 08:00:36;;;;;;;0.55;0.55;;;6.40;99.90;;;;;;5037161;28;20068;-69
2023/12/12 08:03:03;;;;;;;1.20;1.10;;;6.40;99.90;;;;;;5038833;28;20056;-69
2023/12/12 08:05:29;;;;;;;0.20;0.20;;;6.30;99.90;;;;;;5058350;28;20055;-69
2023/12/12 08:07:54;;;;;;;0.10;0.10;;;6.40;99.90;;;;;;5040892;28;20044;-69
2023/12/12 08:10:20;;;;;;;0.10;0.10;;;6.40;99.90;;;;;;5034819;28;20036;-69
2023/12/12 08:12:45;;;;;;;0.10;0.10;;;6.30;99.90;;;;;;5042720;28;20444;-68
2023/12/12 08:15:11;;;;;;;0.10;0.10;;;6.30;99.90;;;;;;5037409;28;20511;-69
2023/12/12 08:17:36;;;;;;;0.15;0.15;;;6.40;99.90;;;;;;5037023;28;20041;-69
2023/12/12 08:20:03;;;;;;;0.45;0.45;;;6.40;99.90;;;;;;5045280;28;20056;-69
2023/12/12 08:22:28;;;;;;;0.10;0.10;;;6.40;99.90;;;;;;5041215;28;20037;-68
2023/12/12 08:24:54;;;;;;;0.20;0.20;;;6.40;99.90;;;;;;5040016;28;20098;-69
2023/12/12 08:27:20;;;;;;;1.17;0.50;;;6.40;99.90;;;;;;5038145;28;20046;-69
2023/12/12 08:29:47;;;;;;;0.70;0.70;;;6.50;99.90;;;;;;5035347;28;20064;-69
2023/12/12 08:32:13;;;;;;;0.82;0.82;;;6.40;99.90;;;;;;5034429;28;20086;-69
2023/12/12 08:34:38;;;;;;;1.08;1.08;;;6.40;99.90;;;;;;5043895;28;20450;-69
2023/12/12 08:37:04;;;;;;;0.20;0.20;;;6.40;99.90;;;;;;5056893;28;20041;-68
2023/12/12 08:39:33;;;;;;;0.10;0.10;;;6.40;99.90;;;;;;5037854;28;20037;-69
2023/12/12 08:41:58;;;;;;;1.02;0.95;;;6.40;99.90;;;;;;5040235;28;20040;-68
2023/12/12 08:44:24;;;;;;;0.22;0.22;;;6.30;99.90;;;;;;5038632;28;20090;-69
2023/12/12 08:46:50;;;;;;;0.30;0.30;;;6.40;99.90;;;;;;5040929;28;20405;-69
2023/12/12 08:49:18;;;;;;;0.35;0.35;;;6.30;99.90;;;;;;5036343;28;20038;-69
2023/12/12 08:51:44;;;;;;;0.10;0.10;;;6.40;99.90;;;;;;5042317;28;20130;-69
2023/12/12 08:54:10;;;;;;;0.45;0.45;;;6.30;99.90;;;;;;5039193;28;20049;-68
2023/12/12 08:56:36;;;;;;;0.17;0.17;;;6.30;99.90;;;;;;5033855;28;20036;-69
2023/12/12 08:59:02;;;;;;;0.52;0.52;;;6.30;99.90;;;;;;5033792;28;20048;-69
2023/12/12 09:01:28;;;;;;;0.40;0.40;;;6.30;99.90;;;;;;5042931;28;20059;-69
2023/12/12 09:03:54;;;;;;;0.80;0.80;;;6.20;99.90;;;;;;5054605;28;20136;-69
2023/12/12 09:06:20;;;;;;;0.10;0.10;;;6.30;99.90;;;;;;5045501;28;20049;-69
2023/12/12 09:08:46;;;;;;;0.10;0.10;;;6.20;99.90;;;;;;5055246;28;20128;-69
2023/12/12 09:11:11;;;;;;;0.10;0.10;;;6.30;99.90;;;;;;5037628;28;20183;-69
2023/12/12 09:13:37;;;;;;;0.25;0.25;;;6.30;99.90;;;;;;5040239;28;20374;-69
2023/12/12 09:16:03;;;;;;;0.10;0.10;;;6.20;99.90;;;;;;5043698;28;20048;-70
2023/12/12 09:18:29;;;;;;;0.47;0.47;;;6.30;99.90;;;;;;5044824;28;20122;-69
2023/12/12 09:20:54;;;;;;;0.80;0.80;;;6.20;99.90;;;;;;5041512;28;20045;-69
2023/12/12 09:23:20;;;;;;;0.10;0.10;;;6.20;99.90;;;;;;5043136;28;20519;-69
2023/12/12 09:25:46;;;;;;;0.10;0.10;;;6.20;99.90;;;;;;5042015;28;20041;-69
2023/12/12 09:28:12;;;;;;;0.40;0.40;;;6.20;99.90;;;;;;5035579;28;20049;-69
2023/12/12 09:30:37;;;;;;;0.10;0.10;;;6.20;99.90;;;;;;5038968;28;20053;-69
2023/12/12 09:33:03;;;;;;;0.70;0.70;;;6.20;99.90;;;;;;5043024;28;20052;-69
2023/12/12 09:35:28;;;;;;;0.10;0.10;;;6.20;99.90;;;;;;5043294;28;20492;-69
2023/12/12 09:37:54;;;;;;;0.10;0.10;;;6.20;99.90;;;;;;5036195;28;20072;-69
2023/12/12 09:40:20;;;;;;;0.20;0.20;;;6.20;99.90;;;;;;5041276;28;20468;-69
2023/12/12 09:42:49;;;;;;;0.82;0.82;;;6.20;99.90;;;;;;5042294;28;20057;-69
2023/12/12 09:45:16;;;;;;;0.30;0.30;;;6.20;99.90;;;;;;5038058;28;20128;-69
2023/12/12 09:47:42;;;;;;;0.45;0.45;;;6.30;99.90;;;;;;5038846;28;20057;-69
2023/12/12 09:50:10;;;;;;;0.10;0.10;;;6.30;99.90;;;;;;5038989;28;20135;-69
2023/12/12 09:52:36;;;;;;;0.55;0.55;;;6.30;99.90;;;;;;5041390;28;20111;-69
2023/12/12 09:55:03;;;;;;;0.40;0.40;;;6.30;99.90;;;;;;5040294;28;20053;-69
2023/12/12 09:57:30;;;;;;;0.65;0.65;;;6.30;99.90;;;;;;5038855;28;20073;-69
2023/12/12 09:59:58;;;;;;;0.68;0.68;;;6.40;99.90;;;;;;5040731;28;20057;-69
2023/12/12 10:02:27;;;;;;;0.47;0.40;;;6.40;99.90;;;;;;5045767;28;20057;-69
2023/12/12 10:04:54;;;;;;;0.32;0.32;;;6.40;99.90;;;;;;5042640;28;20092;-69
2023/12/12 10:07:24;;;;;;;1.00;0.85;;;6.40;99.90;;;;;;5041878;28;20059;-69
2023/12/12 10:09:49;;;;;;;0.15;0.15;;;6.40;99.90;;;;;;5040723;28;20159;-69
2023/12/12 10:12:15;;;;;;;0.47;0.47;;;6.50;99.90;;;;;;5049229;28;20112;-69
2023/12/12 10:14:45;;;;;;;0.25;0.25;;;6.50;99.90;;;;;;5042918;28;20393;-69
2023/12/12 10:17:14;;;;;;;0.80;0.75;;;6.50;99.90;;;;;;5047360;28;20036;-69
2023/12/12 10:19:41;;;;;;;0.10;0.10;;;6.50;99.90;;;;;;5048711;28;20120;-69
2023/12/12 10:22:11;;;;;;;0.28;0.28;;;6.50;99.90;;;;;;5042148;28;20049;-69
2023/12/12 10:24:37;;;;;;;0.40;0.40;;;6.60;99.90;;;;;;5052276;28;20468;-70
2023/12/12 10:27:03;;;;;;;0.20;0.20;;;6.50;99.90;;;;;;5036071;28;20067;-69
2023/12/12 10:29:31;;;;;;;0.10;0.10;;;6.60;99.90;;;;;;5038191;28;20197;-69
2023/12/12 10:31:59;;;;;;;0.17;0.17;;;6.60;99.90;;;;;;5044238;28;20057;-69
2023/12/12 10:34:27;;;;;;;0.28;0.28;;;6.70;99.90;;;;;;5041569;28;20045;-69
2023/12/12 10:36:53;;;;;;;1.17;1.08;;;6.70;99.90;;;;;;5038150;28;20041;-69
2023/12/12 10:39:19;;;;;;;0.60;0.60;;;6.70;99.90;;;;;;5048565;28;20045;-69
2023/12/12 10:41:55;;;;;;;0.22;0.22;;;6.70;99.90;;;;;;5043455;28;20142;-69
2023/12/12 10:44:23;;;;;;;0.17;0.17;;;6.70;99.90;;;;;;5043400;28;20045;-69
2023/12/12 10:46:52;;;;;;;0.60;0.60;;;6.80;99.90;;;;;;5048276;28;20049;-69
2023/12/12 10:49:21;;;;;;;0.80;0.80;;;6.80;99.90;;;;;;5040886;28;20053;-69
2023/12/12 10:51:47;;;;;;;0.77;0.77;;;6.80;99.90;;;;;;5056167;28;20048;-69
2023/12/12 10:54:16;;;;;;;0.95;0.68;;;6.90;99.90;;;;;;5048055;28;20056;-69
2023/12/12 10:56:46;;;;;;;0.75;0.70;;;6.90;99.90;;;;;;5042766;28;20143;-69
2023/12/12 10:59:16;;;;;;;0.38;0.38;;;7.00;99.90;;;;;;5038985;28;20069;-68
2023/12/12 11:01:46;;;;;;;0.20;0.20;;;7.00;99.90;;;;;;5038660;28;20036;-68
2023/12/12 11:04:13;;;;;;;0.45;0.45;;;7.00;99.90;;;;;;5035764;28;20128;-67
2023/12/12 11:06:41;;;;;;;0.45;0.45;;;7.00;99.90;;;;;;5043956;28;20048;-68
2023/12/12 11:09:08;;;;;;;1.50;1.23;;;7.10;99.90;;;;;;5041919;28;20045;-68
2023/12/12 11:11:36;;;;;;;0.47;0.43;;;7.10;99.90;;;;;;5033953;28;20056;-68
2023/12/12 11:14:02;;;;;;;1.08;1.08;;;7.10;99.90;;;;;;5046414;28;20049;-68
2023/12/12 11:16:28;;;;;;;0.20;0.20;;;7.10;99.90;;;;;;5048314;28;20040;-68
2023/12/12 11:18:56;;;;;;;0.90;0.90;;;7.20;99.90;;;;;;5040128;28;20041;-68
2023/12/12 11:21:44;;;;;;;0.10;0.10;;;7.20;99.90;;;;;;5045846;28;20118;-68
2023/12/12 11:24:10;;;;;;;0.10;0.10;;;7.20;99.90;;;;;;5049691;28;20047;-68
2023/12/12 11:26:36;;;;;;;3.10;1.17;;;7.20;99.90;;;;;;5041989;28;20052;-68
2023/12/12 11:29:04;;;;;;;0.13;0.13;;;7.20;99.90;;;;;;5042224;28;20132;-69
2023/12/12 11:31:34;;;;;;;0.57;0.57;;;7.30;99.90;;;;;;5057128;28;20047;-68
2023/12/12 11:34:01;;;;;;;0.75;0.75;;;7.30;99.90;;;;;;5060518;28;20072;-69
2023/12/12 11:36:27;;;;;;;0.98;0.85;;;7.30;99.90;;;;;;5044093;28;20052;-68
2023/12/12 11:38:54;;;;;;;0.30;0.30;;;7.30;99.90;;;;;;5040021;28;20051;-68
2023/12/12 11:41:20;;;;;;;0.20;0.20;;;7.30;99.90;;;;;;5045660;28;20044;-69
2023/12/12 11:43:46;;;;;;;10.93;3.13;;;7.30;99.90;;;;;;5040149;28;20045;-68
2023/12/12 11:46:19;;;;;;;0.10;0.10;;;7.30;99.90;;;;;;5040541;28;20049;-68
2023/12/12 11:48:45;;;;;;;0.10;0.10;;;7.30;99.90;;;;;;5044371;28;20895;-69
2023/12/12 11:51:42;;;;;;;0.40;0.40;;;7.30;99.90;;;;;;5039235;28;20041;-69
2023/12/12 11:54:19;;;;;;;0.30;0.30;;;7.30;99.90;;;;;;5036695;28;20052;-69
2023/12/12 11:56:45;;;;;;;0.10;0.10;;;7.30;99.90;;;;;;5046623;28;20041;-68
2023/12/12 11:59:10;;;;;;;0.73;0.73;;;7.40;99.90;;;;;;5039612;28;20120;-69
2023/12/12 12:01:36;;;;;;;0.60;0.60;;;7.40;99.90;;;;;;5039272;28;20408;-68
2023/12/12 12:04:01;;;;;;;3.83;1.38;;;7.40;99.90;;;;;;5042231;28;20045;-68
2023/12/12 12:06:27;;;;;;;1.50;1.23;;;7.50;99.90;;;;;;5041328;28;20579;-69
2023/12/12 12:08:53;;;;;;;0.98;0.98;;;7.50;99.90;;;;;;5045608;28;20045;-68
2023/12/12 12:11:19;;;;;;;2.38;2.20;;;7.50;99.90;;;;;;5031306;28;20425;-69
2023/12/12 12:13:45;;;;;;;0.30;0.30;;;7.60;99.90;;;;;;5041377;28;20056;-69
2023/12/12 12:16:11;;;;;;;1.45;1.35;;;7.50;99.90;;;;;;5047552;28;20532;-68
2023/12/12 12:18:37;;;;;;;0.30;0.30;;;7.60;99.90;;;;;;5036030;28;20128;-69
2023/12/12 12:21:04;;;;;;;0.10;0.10;;;7.60;99.90;;;;;;5042725;28;20045;-69
2023/12/12 12:23:32;;;;;;;0.10;0.10;;;7.50;99.90;;;;;;5043388;28;20108;-69
2023/12/12 12:26:01;;;;;;;0.40;0.40;;;7.50;99.90;;;;;;5033875;28;20041;-68
2023/12/12 12:28:31;;;;;;;0.10;0.10;;;7.60;99.90;;;;;;5041958;28;20049;-69
2023/12/12 12:30:58;;;;;;;0.75;0.75;;;7.60;99.90;;;;;;5040637;28;20049;-69
2023/12/12 12:33:33;;;;;;;0.47;0.47;;;7.60;99.90;;;;;;5039862;28;20045;-69
2023/12/12 12:35:59;;;;;;;0.60;0.60;;;7.60;99.90;;;;;;5061634;28;20073;-69
2023/12/12 12:38:25;;;;;;;0.30;0.30;;;7.60;99.90;;;;;;5032860;28;20068;-69
2023/12/12 12:40:51;;;;;;;0.15;0.15;;;7.60;99.90;;;;;;5041743;28;20044;-69
2023/12/12 12:43:18;;;;;;;0.30;0.30;;;7.60;99.90;;;;;;5042106;28;20041;-69
2023/12/12 12:45:47;;;;;;;1.95;1.85;;;7.60;99.90;;;;;;5034209;28;20401;-68
2023/12/12 12:48:14;;;;;;;0.50;0.50;;;7.60;99.90;;;;;;5041940;28;20469;-69
2023/12/12 12:50:44;;;;;;;1.52;1.48;;;7.60;99.90;;;;;;5044456;28;20056;-69
2023/12/12 12:53:10;;;;;;;0.10;0.10;;;7.60;99.90;;;;;;5038605;28;20124;-69